createdAt,value
2017-01-20T00:00:09.751Z,1020.11
2017-01-20T00:00:50.236Z,1020.1
2017-01-20T00:01:31.126Z,1020.09
2017-01-20T00:02:11.169Z,1020.08
2017-01-20T00:02:51.744Z,1020.09
2017-01-20T00:03:32.264Z,1020.05
2017-01-20T00:04:12.755Z,1020.1
2017-01-20T00:04:53.243Z,1020.02
2017-01-20T00:05:33.724Z,1020.07
2017-01-20T00:06:14.224Z,1020.08
2017-01-20T00:06:54.688Z,1020.06
2017-01-20T00:07:35.186Z,1020.08
2017-01-20T00:08:15.707Z,1020.03
2017-01-20T00:08:56.165Z,1020.01
2017-01-20T00:09:36.629Z,1020.04
2017-01-20T00:10:17.113Z,1020.03
2017-01-20T00:10:57.693Z,1020.03
2017-01-20T00:11:38.106Z,1020.03
2017-01-20T00:12:18.608Z,1020.03
2017-01-20T00:12:59.127Z,1019.99
2017-01-20T00:13:39.926Z,1019.99
2017-01-20T00:14:20.362Z,1019.99
2017-01-20T00:15:00.829Z,1020.01
2017-01-20T00:15:41.353Z,1020
2017-01-20T00:16:21.797Z,1020.02
2017-01-20T00:17:02.377Z,1019.99
2017-01-20T00:17:42.779Z,1019.98
2017-01-20T00:18:23.358Z,1019.98
2017-01-20T00:19:03.802Z,1019.97
2017-01-20T00:19:44.290Z,1019.96
2017-01-20T00:20:24.727Z,1019.99
2017-01-20T00:21:05.244Z,1019.97
2017-01-20T00:23:20.453Z,1019.91
2017-01-20T00:24:00.797Z,1019.92
2017-01-20T00:24:41.268Z,1019.87
2017-01-20T00:25:21.803Z,1019.92
2017-01-20T00:26:02.243Z,1019.96
2017-01-20T00:26:42.766Z,1019.94
2017-01-20T00:27:23.268Z,1019.95
2017-01-20T00:28:03.700Z,1020.01
2017-01-20T00:28:44.202Z,1019.95
2017-01-20T00:29:24.681Z,1019.91
2017-01-20T00:30:05.151Z,1019.93
2017-01-20T00:30:45.658Z,1019.95
2017-01-20T00:31:26.102Z,1019.94
2017-01-20T00:32:06.649Z,1019.95
2017-01-20T00:32:47.060Z,1019.92
2017-01-20T00:33:27.548Z,1019.95
2017-01-20T00:34:08.069Z,1019.96
2017-01-20T00:34:48.537Z,1019.93
2017-01-20T00:35:29.018Z,1019.94
2017-01-20T00:36:09.476Z,1019.94
2017-01-20T00:36:50.138Z,1019.95
2017-01-20T00:37:30.580Z,1020.03
2017-01-20T00:38:11.020Z,1019.99
2017-01-20T00:38:51.683Z,1019.96
2017-01-20T00:39:32.108Z,1019.98
2017-01-20T00:40:12.671Z,1019.97
2017-01-20T00:40:54.028Z,1019.96
2017-01-20T00:41:34.730Z,1019.92
2017-01-20T00:42:15.212Z,1019.96
2017-01-20T00:42:55.670Z,1019.96
2017-01-20T00:43:36.388Z,1019.97
2017-01-20T00:44:16.791Z,1019.91
2017-01-20T00:44:57.304Z,1019.99
2017-01-20T00:45:37.715Z,1020
2017-01-20T00:46:18.188Z,1019.94
2017-01-20T00:46:58.772Z,1020
2017-01-20T00:47:39.350Z,1019.94
2017-01-20T00:48:19.756Z,1019.96
2017-01-20T00:49:00.293Z,1019.95
2017-01-20T00:49:40.721Z,1019.97
2017-01-20T00:50:21.248Z,1019.96
2017-01-20T00:51:01.993Z,1019.95
2017-01-20T00:51:42.975Z,1019.92
2017-01-20T00:52:23.534Z,1019.95
2017-01-20T00:53:04.156Z,1019.96
2017-01-20T00:53:44.875Z,1019.96
2017-01-20T00:54:25.358Z,1019.98
2017-01-20T00:55:05.837Z,1019.94
2017-01-20T00:55:46.342Z,1020
2017-01-20T00:56:26.760Z,1019.95
2017-01-20T00:57:07.253Z,1019.91
2017-01-20T00:57:47.700Z,1019.94
2017-01-20T00:58:28.232Z,1019.89
2017-01-20T00:59:08.683Z,1019.96
2017-01-20T00:59:49.221Z,1019.9
2017-01-20T01:00:29.611Z,1019.91
2017-01-20T01:01:10.126Z,1019.96
2017-01-20T01:01:50.597Z,1019.92
2017-01-20T01:02:31.071Z,1019.96
2017-01-20T01:03:11.556Z,1019.96
2017-01-20T01:03:52.024Z,1019.9
2017-01-20T01:04:32.478Z,1019.94
2017-01-20T01:05:12.989Z,1019.94
2017-01-20T01:05:53.444Z,1019.91
2017-01-20T01:06:33.973Z,1019.93
2017-01-20T01:07:14.447Z,1019.91
2017-01-20T01:07:54.901Z,1019.96
2017-01-20T01:08:35.397Z,1019.88
2017-01-20T01:09:15.899Z,1019.84
2017-01-20T01:09:56.394Z,1019.89
2017-01-20T01:10:36.870Z,1019.87
2017-01-20T01:11:17.385Z,1019.84
2017-01-20T01:11:57.843Z,1019.83
2017-01-20T01:12:38.353Z,1019.88
2017-01-20T01:13:18.884Z,1019.91
2017-01-20T01:13:59.384Z,1019.88
2017-01-20T01:14:39.855Z,1019.86
2017-01-20T01:15:20.352Z,1019.91
2017-01-20T01:16:00.831Z,1019.92
2017-01-20T01:16:41.298Z,1019.9
2017-01-20T01:17:21.806Z,1019.92
2017-01-20T01:18:02.274Z,1019.95
2017-01-20T01:18:42.747Z,1019.92
2017-01-20T01:19:23.258Z,1019.91
2017-01-20T01:20:03.743Z,1019.89
2017-01-20T01:20:44.245Z,1019.94
2017-01-20T01:21:24.731Z,1019.85
2017-01-20T01:22:05.249Z,1019.85
2017-01-20T01:22:45.771Z,1019.88
2017-01-20T01:23:26.223Z,1019.9
2017-01-20T01:24:06.661Z,1019.87
2017-01-20T01:24:47.194Z,1019.91
2017-01-20T01:25:27.708Z,1019.87
2017-01-20T01:26:08.143Z,1019.9
2017-01-20T01:26:48.630Z,1019.89
2017-01-20T01:27:29.077Z,1019.91
2017-01-20T01:28:09.620Z,1019.9
2017-01-20T01:28:50.158Z,1019.93
2017-01-20T01:29:30.665Z,1019.93
2017-01-20T01:30:11.097Z,1019.92
2017-01-20T01:30:51.586Z,1019.92
2017-01-20T01:31:32.135Z,1019.9
2017-01-20T01:32:12.554Z,1019.95
2017-01-20T01:32:53.878Z,1019.9
2017-01-20T01:33:33.576Z,1019.89
2017-01-20T01:34:14.080Z,1019.93
2017-01-20T01:34:54.518Z,1019.9
2017-01-20T01:35:35.032Z,1019.92
2017-01-20T01:36:15.511Z,1019.97
2017-01-20T01:36:56.051Z,1019.94
2017-01-20T01:37:36.639Z,1019.97
2017-01-20T01:38:17.177Z,1019.95
2017-01-20T01:38:57.623Z,1019.95
2017-01-20T01:39:38.104Z,1019.96
2017-01-20T01:40:18.652Z,1019.94
2017-01-20T01:40:59.103Z,1020.01
2017-01-20T01:41:39.607Z,1019.93
2017-01-20T01:42:20.045Z,1019.97
2017-01-20T01:43:00.568Z,1019.96
2017-01-20T01:43:41.080Z,1019.95
2017-01-20T01:44:21.503Z,1019.95
2017-01-20T01:45:02.054Z,1019.93
2017-01-20T01:45:42.518Z,1019.96
2017-01-20T01:46:23.096Z,1020
2017-01-20T01:47:03.681Z,1019.99
2017-01-20T01:47:44.095Z,1019.93
2017-01-20T01:48:24.603Z,1019.98
2017-01-20T01:49:05.063Z,1019.93
2017-01-20T01:49:45.594Z,1019.94
2017-01-20T01:50:26.047Z,1019.93
2017-01-20T01:51:06.503Z,1019.92
2017-01-20T01:51:47.043Z,1019.96
2017-01-20T01:52:27.561Z,1019.96
2017-01-20T01:53:08.051Z,1019.94
2017-01-20T01:53:48.637Z,1019.96
2017-01-20T01:54:29.100Z,1019.89
2017-01-20T01:55:09.633Z,1019.87
2017-01-20T01:55:50.158Z,1019.89
2017-01-20T01:56:30.677Z,1019.88
2017-01-20T01:57:11.099Z,1019.88
2017-01-20T01:57:51.645Z,1019.82
2017-01-20T01:58:32.109Z,1019.82
2017-01-20T01:59:12.565Z,1019.8
2017-01-20T01:59:53.081Z,1019.82
2017-01-20T02:00:33.544Z,1019.77
2017-01-20T02:01:13.974Z,1019.76
2017-01-20T02:01:54.485Z,1019.79
2017-01-20T02:02:34.957Z,1019.72
2017-01-20T02:03:15.430Z,1019.7
2017-01-20T02:03:55.931Z,1019.67
2017-01-20T02:04:36.408Z,1019.66
2017-01-20T02:05:16.828Z,1019.71
2017-01-20T02:05:57.352Z,1019.74
2017-01-20T02:06:37.827Z,1019.73
2017-01-20T02:07:18.330Z,1019.78
2017-01-20T02:07:58.819Z,1019.75
2017-01-20T02:08:39.245Z,1019.74
2017-01-20T02:09:19.829Z,1019.75
2017-01-20T02:10:00.332Z,1019.76
2017-01-20T02:10:40.757Z,1019.72
2017-01-20T02:11:21.311Z,1019.76
2017-01-20T02:12:01.759Z,1019.74
2017-01-20T02:12:42.228Z,1019.72
2017-01-20T02:13:22.732Z,1019.74
2017-01-20T02:14:03.150Z,1019.75
2017-01-20T02:14:43.696Z,1019.73
2017-01-20T02:15:24.158Z,1019.74
2017-01-20T02:16:04.621Z,1019.72
2017-01-20T02:16:45.164Z,1019.76
2017-01-20T02:17:25.610Z,1019.72
2017-01-20T02:18:06.060Z,1019.73
2017-01-20T02:18:46.503Z,1019.72
2017-01-20T02:19:27.028Z,1019.77
2017-01-20T02:20:07.567Z,1019.78
2017-01-20T02:20:48.124Z,1019.75
2017-01-20T02:21:28.586Z,1019.81
2017-01-20T02:22:09.094Z,1019.75
2017-01-20T02:22:49.890Z,1019.79
2017-01-20T02:23:30.433Z,1019.74
2017-01-20T02:24:10.883Z,1019.74
2017-01-20T02:24:51.398Z,1019.76
2017-01-20T02:25:31.867Z,1019.74
2017-01-20T02:26:12.334Z,1019.75
2017-01-20T02:26:52.811Z,1019.72
2017-01-20T02:27:33.317Z,1019.77
2017-01-20T02:28:13.812Z,1019.81
2017-01-20T02:28:54.310Z,1019.78
2017-01-20T02:29:34.708Z,1019.78
2017-01-20T02:30:15.259Z,1019.76
2017-01-20T02:30:55.699Z,1019.79
2017-01-20T02:31:36.205Z,1019.76
2017-01-20T02:32:16.689Z,1019.74
2017-01-20T02:32:57.215Z,1019.72
2017-01-20T02:33:37.647Z,1019.74
2017-01-20T02:34:18.155Z,1019.78
2017-01-20T02:34:58.607Z,1019.74
2017-01-20T02:35:39.128Z,1019.74
2017-01-20T02:36:19.579Z,1019.78
2017-01-20T02:37:00.088Z,1019.74
2017-01-20T02:37:40.505Z,1019.75
2017-01-20T02:38:20.957Z,1019.75
2017-01-20T02:39:01.520Z,1019.72
2017-01-20T02:39:41.968Z,1019.67
2017-01-20T02:40:22.418Z,1019.73
2017-01-20T02:41:02.892Z,1019.75
2017-01-20T02:41:43.378Z,1019.73
2017-01-20T02:42:23.878Z,1019.74
2017-01-20T02:43:04.417Z,1019.78
2017-01-20T02:43:45.081Z,1019.77
2017-01-20T02:44:25.565Z,1019.77
2017-01-20T02:45:06.075Z,1019.76
2017-01-20T02:45:46.485Z,1019.77
2017-01-20T02:46:27.014Z,1019.76
2017-01-20T02:47:07.444Z,1019.73
2017-01-20T02:47:47.880Z,1019.73
2017-01-20T02:48:28.405Z,1019.72
2017-01-20T02:49:08.869Z,1019.71
2017-01-20T02:49:49.372Z,1019.75
2017-01-20T02:50:29.902Z,1019.75
2017-01-20T02:51:10.342Z,1019.73
2017-01-20T02:51:50.795Z,1019.72
2017-01-20T02:52:31.470Z,1019.72
2017-01-20T02:53:11.819Z,1019.7
2017-01-20T02:53:52.331Z,1019.67
2017-01-20T02:54:32.803Z,1019.69
2017-01-20T02:55:13.285Z,1019.67
2017-01-20T02:55:54.380Z,1019.69
2017-01-20T02:56:34.307Z,1019.7
2017-01-20T02:57:14.770Z,1019.75
2017-01-20T02:57:55.262Z,1019.7
2017-01-20T02:58:35.752Z,1019.7
2017-01-20T02:59:16.219Z,1019.68
2017-01-20T02:59:56.687Z,1019.64
2017-01-20T03:00:37.293Z,1019.62
2017-01-20T03:01:17.757Z,1019.58
2017-01-20T03:01:58.232Z,1019.58
2017-01-20T03:02:38.755Z,1019.61
2017-01-20T03:03:19.249Z,1019.65
2017-01-20T03:03:59.746Z,1019.63
2017-01-20T03:04:40.264Z,1019.63
2017-01-20T03:05:20.727Z,1019.64
2017-01-20T03:06:01.201Z,1019.65
2017-01-20T03:06:41.696Z,1019.61
2017-01-20T03:07:22.201Z,1019.63
2017-01-20T03:08:02.648Z,1019.64
2017-01-20T03:08:43.121Z,1019.63
2017-01-20T03:09:23.712Z,1019.59
2017-01-20T03:10:04.195Z,1019.59
2017-01-20T03:10:44.710Z,1019.56
2017-01-20T03:11:25.197Z,1019.59
2017-01-20T03:12:05.656Z,1019.57
2017-01-20T03:12:46.122Z,1019.56
2017-01-20T03:13:26.572Z,1019.61
2017-01-20T03:14:07.085Z,1019.54
2017-01-20T03:14:47.583Z,1019.6
2017-01-20T03:15:28.029Z,1019.59
2017-01-20T03:16:08.517Z,1019.6
2017-01-20T03:16:49.005Z,1019.59
2017-01-20T03:17:29.479Z,1019.6
2017-01-20T03:18:10.023Z,1019.61
2017-01-20T03:18:50.442Z,1019.57
2017-01-20T03:19:30.944Z,1019.6
2017-01-20T03:20:11.483Z,1019.58
2017-01-20T03:20:51.964Z,1019.63
2017-01-20T03:21:32.459Z,1019.61
2017-01-20T03:22:12.899Z,1019.65
2017-01-20T03:22:53.377Z,1019.66
2017-01-20T03:23:33.927Z,1019.6
2017-01-20T03:24:14.373Z,1019.61
2017-01-20T03:24:54.871Z,1019.65
2017-01-20T03:25:35.414Z,1019.57
2017-01-20T03:26:15.819Z,1019.57
2017-01-20T03:26:56.365Z,1019.63
2017-01-20T03:27:36.824Z,1019.62
2017-01-20T03:28:17.260Z,1019.61
2017-01-20T03:28:57.810Z,1019.61
2017-01-20T03:29:38.308Z,1019.63
2017-01-20T03:30:18.749Z,1019.61
2017-01-20T03:30:59.301Z,1019.6
2017-01-20T03:31:39.731Z,1019.62
2017-01-20T03:32:20.282Z,1019.59
2017-01-20T03:33:00.707Z,1019.6
2017-01-20T03:33:41.256Z,1019.66
2017-01-20T03:34:21.728Z,1019.66
2017-01-20T03:35:02.219Z,1019.62
2017-01-20T03:35:42.832Z,1019.68
2017-01-20T03:36:23.231Z,1019.69
2017-01-20T03:37:03.701Z,1019.68
2017-01-20T03:37:44.211Z,1019.7
2017-01-20T03:38:24.709Z,1019.69
2017-01-20T03:39:05.168Z,1019.67
2017-01-20T03:39:45.835Z,1019.63
2017-01-20T03:40:26.277Z,1019.68
2017-01-20T03:41:06.813Z,1019.63
2017-01-20T03:41:47.345Z,1019.63
2017-01-20T03:42:27.785Z,1019.68
2017-01-20T03:43:08.268Z,1019.63
2017-01-20T03:43:48.752Z,1019.69
2017-01-20T03:44:29.301Z,1019.7
2017-01-20T03:45:09.692Z,1019.7
2017-01-20T03:45:50.180Z,1019.68
2017-01-20T03:46:30.886Z,1019.67
2017-01-20T03:47:11.388Z,1019.65
2017-01-20T03:47:51.809Z,1019.65
2017-01-20T03:48:32.325Z,1019.66
2017-01-20T03:49:12.749Z,1019.66
2017-01-20T03:49:53.260Z,1019.7
2017-01-20T03:50:33.789Z,1019.62
2017-01-20T03:51:14.179Z,1019.66
2017-01-20T03:51:54.707Z,1019.73
2017-01-20T03:52:35.182Z,1019.71
2017-01-20T03:53:15.635Z,1019.66
2017-01-20T03:53:56.112Z,1019.67
2017-01-20T03:54:36.582Z,1019.66
2017-01-20T03:55:17.039Z,1019.67
2017-01-20T03:55:57.534Z,1019.66
2017-01-20T03:56:38.073Z,1019.62
2017-01-20T03:57:18.557Z,1019.63
2017-01-20T03:57:59.029Z,1019.7
2017-01-20T03:58:39.566Z,1019.69
2017-01-20T03:59:20.011Z,1019.64
2017-01-20T04:00:00.489Z,1019.66
2017-01-20T04:00:40.956Z,1019.66
2017-01-20T04:01:21.534Z,1019.65
2017-01-20T04:02:01.950Z,1019.64
2017-01-20T04:02:42.447Z,1019.67
2017-01-20T04:03:22.957Z,1019.64
2017-01-20T04:04:03.425Z,1019.65
2017-01-20T04:04:43.838Z,1019.71
2017-01-20T04:05:24.365Z,1019.71
2017-01-20T04:06:04.846Z,1019.66
2017-01-20T04:06:45.325Z,1019.7
2017-01-20T04:07:25.826Z,1019.68
2017-01-20T04:08:06.230Z,1019.68
2017-01-20T04:08:46.793Z,1019.73
2017-01-20T04:09:27.219Z,1019.73
2017-01-20T04:10:07.758Z,1019.69
2017-01-20T04:10:48.230Z,1019.71
2017-01-20T04:11:28.693Z,1019.71
2017-01-20T04:12:09.148Z,1019.69
2017-01-20T04:12:49.622Z,1019.65
2017-01-20T04:13:30.118Z,1019.7
2017-01-20T04:14:10.651Z,1019.68
2017-01-20T04:14:51.218Z,1019.68
2017-01-20T04:15:31.681Z,1019.67
2017-01-20T04:16:12.209Z,1019.68
2017-01-20T04:16:52.657Z,1019.69
2017-01-20T04:17:33.191Z,1019.69
2017-01-20T04:18:13.641Z,1019.69
2017-01-20T04:18:54.132Z,1019.74
2017-01-20T04:19:34.656Z,1019.75
2017-01-20T04:20:15.144Z,1019.73
2017-01-20T04:20:55.644Z,1019.75
2017-01-20T04:21:36.119Z,1019.73
2017-01-20T04:22:16.701Z,1019.77
2017-01-20T04:22:57.248Z,1019.71
2017-01-20T04:23:37.704Z,1019.8
2017-01-20T04:24:18.183Z,1019.81
2017-01-20T04:24:58.697Z,1019.73
2017-01-20T04:25:39.139Z,1019.7
2017-01-20T04:26:19.640Z,1019.73
2017-01-20T04:27:00.085Z,1019.75
2017-01-20T04:27:40.628Z,1019.79
2017-01-20T04:28:21.084Z,1019.79
2017-01-20T04:29:01.541Z,1019.73
2017-01-20T04:29:42.102Z,1019.76
2017-01-20T04:30:22.568Z,1019.76
2017-01-20T04:31:03.185Z,1019.81
2017-01-20T04:31:43.658Z,1019.71
2017-01-20T04:32:24.183Z,1019.72
2017-01-20T04:33:04.682Z,1019.74
2017-01-20T04:33:45.125Z,1019.74
2017-01-20T04:34:25.627Z,1019.72
2017-01-20T04:35:06.016Z,1019.71
2017-01-20T04:35:46.559Z,1019.75
2017-01-20T04:36:26.995Z,1019.73
2017-01-20T04:37:08.443Z,1019.73
2017-01-20T04:37:48.933Z,1019.75
2017-01-20T04:38:29.394Z,1019.72
2017-01-20T04:39:09.899Z,1019.69
2017-01-20T04:39:50.336Z,1019.7
2017-01-20T04:40:30.985Z,1019.7
2017-01-20T04:41:11.482Z,1019.62
2017-01-20T04:41:51.929Z,1019.71
2017-01-20T04:42:32.531Z,1019.68
2017-01-20T04:43:13.025Z,1019.64
2017-01-20T04:43:53.550Z,1019.62
2017-01-20T04:44:34.024Z,1019.63
2017-01-20T04:45:14.556Z,1019.65
2017-01-20T04:45:55.013Z,1019.63
2017-01-20T04:46:35.600Z,1019.66
2017-01-20T04:47:16.008Z,1019.64
2017-01-20T04:47:56.461Z,1019.68
2017-01-20T04:48:36.987Z,1019.66
2017-01-20T04:49:17.495Z,1019.69
2017-01-20T04:49:57.975Z,1019.68
2017-01-20T04:50:38.429Z,1019.69
2017-01-20T04:51:18.894Z,1019.68
2017-01-20T04:51:59.431Z,1019.67
2017-01-20T04:52:39.871Z,1019.68
2017-01-20T04:53:20.377Z,1019.66
2017-01-20T04:54:00.887Z,1019.69
2017-01-20T04:54:41.610Z,1019.73
2017-01-20T04:55:22.062Z,1019.77
2017-01-20T04:56:02.564Z,1019.75
2017-01-20T04:56:43.089Z,1019.69
2017-01-20T04:57:23.642Z,1019.67
2017-01-20T04:58:04.888Z,1019.74
2017-01-20T04:58:44.563Z,1019.66
2017-01-20T04:59:25.064Z,1019.75
2017-01-20T05:00:05.554Z,1019.7
2017-01-20T05:00:46.021Z,1019.71
2017-01-20T05:01:26.556Z,1019.74
2017-01-20T05:02:07.036Z,1019.76
2017-01-20T05:02:47.564Z,1019.77
2017-01-20T05:03:28.092Z,1019.75
2017-01-20T05:04:08.633Z,1019.75
2017-01-20T05:04:49.105Z,1019.76
2017-01-20T05:05:29.680Z,1019.78
2017-01-20T05:06:10.200Z,1019.76
2017-01-20T05:06:50.667Z,1019.73
2017-01-20T05:07:31.150Z,1019.73
2017-01-20T05:10:02.328Z,1019.8
2017-01-20T05:10:41.784Z,1019.76
2017-01-20T05:11:22.226Z,1019.75
2017-01-20T05:12:02.770Z,1019.78
2017-01-20T05:12:43.186Z,1019.73
2017-01-20T05:13:23.685Z,1019.72
2017-01-20T05:14:04.129Z,1019.75
2017-01-20T05:14:44.812Z,1019.77
2017-01-20T05:15:25.330Z,1019.71
2017-01-20T05:16:05.758Z,1019.77
2017-01-20T05:16:46.290Z,1019.77
2017-01-20T05:17:26.789Z,1019.8
2017-01-20T05:18:07.309Z,1019.81
2017-01-20T05:18:47.772Z,1019.77
2017-01-20T05:19:28.293Z,1019.77
2017-01-20T05:20:08.766Z,1019.81
2017-01-20T05:20:49.204Z,1019.81
2017-01-20T05:21:29.724Z,1019.76
2017-01-20T05:22:10.208Z,1019.85
2017-01-20T05:22:50.689Z,1019.85
2017-01-20T05:23:31.142Z,1019.75
2017-01-20T05:24:11.620Z,1019.84
2017-01-20T05:24:52.115Z,1019.81
2017-01-20T05:25:32.608Z,1019.81
2017-01-20T05:26:13.127Z,1019.85
2017-01-20T05:26:53.586Z,1019.83
2017-01-20T05:27:34.091Z,1019.78
2017-01-20T05:28:14.587Z,1019.86
2017-01-20T05:28:55.031Z,1019.82
2017-01-20T05:29:35.624Z,1019.83
2017-01-20T05:30:16.116Z,1019.82
2017-01-20T05:30:56.619Z,1019.84
2017-01-20T05:31:37.153Z,1019.83
2017-01-20T05:32:17.536Z,1019.83
2017-01-20T05:32:58.130Z,1019.87
2017-01-20T05:33:38.496Z,1019.84
2017-01-20T05:34:19.626Z,1019.81
2017-01-20T05:35:00.239Z,1019.85
2017-01-20T05:35:40.806Z,1019.82
2017-01-20T05:36:21.374Z,1019.79
2017-01-20T05:37:01.931Z,1019.82
2017-01-20T05:37:42.367Z,1019.81
2017-01-20T05:38:23.516Z,1019.82
2017-01-20T05:39:04.106Z,1019.83
2017-01-20T05:39:44.690Z,1019.86
2017-01-20T05:40:25.360Z,1019.86
2017-01-20T05:41:06.035Z,1019.82
2017-01-20T05:41:46.593Z,1019.88
2017-01-20T05:42:27.787Z,1019.82
2017-01-20T05:43:08.354Z,1019.87
2017-01-20T05:43:48.734Z,1019.85
2017-01-20T05:44:29.323Z,1019.87
2017-01-20T05:45:09.804Z,1019.85
2017-01-20T05:45:50.325Z,1019.91
2017-01-20T05:46:30.867Z,1019.83
2017-01-20T05:47:11.414Z,1019.81
2017-01-20T05:47:51.856Z,1019.81
2017-01-20T05:48:32.789Z,1019.87
2017-01-20T05:49:13.347Z,1019.81
2017-01-20T05:49:53.902Z,1019.96
2017-01-20T05:50:34.374Z,1019.85
2017-01-20T05:51:14.973Z,1019.85
2017-01-20T05:51:55.543Z,1019.88
2017-01-20T05:52:35.927Z,1019.9
2017-01-20T05:53:16.476Z,1019.83
2017-01-20T05:53:57.082Z,1019.86
2017-01-20T05:54:37.568Z,1019.88
2017-01-20T05:55:18.117Z,1019.86
2017-01-20T05:55:58.568Z,1019.84
2017-01-20T05:56:38.996Z,1019.92
2017-01-20T05:57:19.680Z,1019.86
2017-01-20T05:58:00.211Z,1019.88
2017-01-20T05:58:40.753Z,1019.88
2017-01-20T05:59:21.188Z,1019.82
2017-01-20T06:00:01.702Z,1019.86
2017-01-20T06:00:42.217Z,1019.84
2017-01-20T06:01:22.616Z,1019.88
2017-01-20T06:02:03.106Z,1019.91
2017-01-20T06:02:43.652Z,1019.86
2017-01-20T06:03:24.093Z,1019.87
2017-01-20T06:04:04.570Z,1019.88
2017-01-20T06:04:45.103Z,1019.87
2017-01-20T06:05:25.610Z,1019.84
2017-01-20T06:06:06.179Z,1019.87
2017-01-20T06:06:46.563Z,1019.9
2017-01-20T06:07:27.115Z,1019.9
2017-01-20T06:08:07.568Z,1019.92
2017-01-20T06:08:48.054Z,1019.95
2017-01-20T06:09:28.957Z,1019.95
2017-01-20T06:10:09.353Z,1019.97
2017-01-20T06:10:49.962Z,1019.96
2017-01-20T06:11:30.761Z,1019.94
2017-01-20T06:12:11.143Z,1019.9
2017-01-20T06:13:10.077Z,1019.91
2017-01-20T06:13:50.579Z,1019.91
2017-01-20T06:14:38.018Z,1019.87
2017-01-20T06:15:41.361Z,1019.87
2017-01-20T06:20:54.489Z,1019.85
2017-01-20T06:41:40.700Z,1019.97
2017-01-20T06:42:23.788Z,1019.95
2017-01-20T06:43:04.979Z,1019.98
2017-01-20T06:43:47.843Z,1019.98
2017-01-20T06:44:29.890Z,1019.98
2017-01-20T06:45:10.330Z,1020.03
2017-01-20T06:45:50.940Z,1019.98
2017-01-20T06:46:32.550Z,1019.96
2017-01-20T06:47:13.127Z,1019.97
2017-01-20T06:47:53.691Z,1020
2017-01-20T06:48:34.057Z,1019.95
2017-01-20T06:49:14.643Z,1019.96
2017-01-20T06:49:56.451Z,1019.97
2017-01-20T06:50:36.998Z,1019.99
2017-01-20T06:51:18.700Z,1019.96
2017-01-20T06:51:59.217Z,1019.98
2017-01-20T06:52:39.732Z,1019.96
2017-01-20T06:53:21.079Z,1019.97
2017-01-20T06:54:01.447Z,1019.95
2017-01-20T06:54:41.878Z,1019.97
2017-01-20T06:55:25.441Z,1020.02
2017-01-20T06:56:08.179Z,1019.99
2017-01-20T06:56:52.926Z,1019.99
2017-01-20T06:57:34.529Z,1020.03
2017-01-20T06:58:17.433Z,1020.03
2017-01-20T06:58:59.033Z,1019.99
2017-01-20T06:59:40.100Z,1020
2017-01-20T07:00:21.981Z,1020
2017-01-20T07:01:03.920Z,1020.01
2017-01-20T07:01:45.231Z,1020.08
2017-01-20T07:02:27.568Z,1020.03
2017-01-20T07:03:08.947Z,1020.06
2017-01-20T07:03:50.129Z,1020.06
2017-01-20T07:04:31.184Z,1020.05
2017-01-20T07:05:11.715Z,1020.09
2017-01-20T07:05:52.177Z,1020.11
2017-01-20T07:06:32.677Z,1020.09
2017-01-20T07:07:13.160Z,1020.08
2017-01-20T07:07:53.648Z,1020.1
2017-01-20T07:08:34.100Z,1020.08
2017-01-20T07:09:14.558Z,1020.06
2017-01-20T07:09:55.089Z,1020.13
2017-01-20T07:10:35.570Z,1020.1
2017-01-20T07:11:16.049Z,1020.12
2017-01-20T07:11:56.611Z,1020.15
2017-01-20T07:12:37.025Z,1020.12
2017-01-20T07:13:17.552Z,1020.12
2017-01-20T07:13:58.037Z,1020.14
2017-01-20T07:14:38.546Z,1020.15
2017-01-20T07:15:19.005Z,1020.12
2017-01-20T07:15:59.517Z,1020.18
2017-01-20T07:16:40.033Z,1020.12
2017-01-20T07:17:20.478Z,1020.12
2017-01-20T07:18:01.026Z,1020.11
2017-01-20T07:18:41.464Z,1020.07
2017-01-20T07:19:21.961Z,1020.08
2017-01-20T07:20:02.475Z,1020.07
2017-01-20T07:20:42.942Z,1020.07
2017-01-20T07:21:23.467Z,1020.07
2017-01-20T07:22:04.023Z,1020.11
2017-01-20T07:22:44.503Z,1020.13
2017-01-20T07:23:25.047Z,1020.07
2017-01-20T07:24:05.816Z,1020.09
2017-01-20T07:24:46.312Z,1020.1
2017-01-20T07:25:26.912Z,1020.1
2017-01-20T07:26:07.354Z,1020.09
2017-01-20T07:26:47.820Z,1020.1
2017-01-20T07:27:28.375Z,1020.1
2017-01-20T07:28:08.804Z,1020.14
2017-01-20T07:28:49.300Z,1020.18
2017-01-20T07:29:29.834Z,1020.16
2017-01-20T07:30:10.308Z,1020.19
2017-01-20T07:30:50.799Z,1020.14
2017-01-20T07:31:31.397Z,1020.13
2017-01-20T07:32:11.772Z,1020.15
2017-01-20T07:32:52.266Z,1020.17
2017-01-20T07:33:32.762Z,1020.17
2017-01-20T07:34:13.261Z,1020.18
2017-01-20T07:34:53.778Z,1020.21
2017-01-20T07:35:34.256Z,1020.17
2017-01-20T07:36:14.809Z,1020.15
2017-01-20T07:36:55.295Z,1020.22
2017-01-20T07:37:35.723Z,1020.22
2017-01-20T07:38:16.244Z,1020.18
2017-01-20T07:38:56.763Z,1020.21
2017-01-20T07:39:37.218Z,1020.2
2017-01-20T07:40:17.726Z,1020.16
2017-01-20T07:40:58.229Z,1020.18
2017-01-20T07:41:38.703Z,1020.18
2017-01-20T07:42:19.143Z,1020.21
2017-01-20T07:42:59.668Z,1020.21
2017-01-20T07:43:40.124Z,1020.2
2017-01-20T07:44:20.591Z,1020.15
2017-01-20T07:45:01.108Z,1020.14
2017-01-20T07:45:41.588Z,1020.14
2017-01-20T07:46:22.099Z,1020.22
2017-01-20T07:47:02.693Z,1020.18
2017-01-20T07:47:43.198Z,1020.17
2017-01-20T07:48:23.656Z,1020.16
2017-01-20T07:49:04.218Z,1020.14
2017-01-20T07:49:44.699Z,1020.18
2017-01-20T07:50:25.176Z,1020.17
2017-01-20T07:51:05.659Z,1020.23
2017-01-20T07:51:46.179Z,1020.24
2017-01-20T07:52:26.718Z,1020.18
2017-01-20T07:53:07.231Z,1020.26
2017-01-20T07:53:47.720Z,1020.21
2017-01-20T07:54:28.189Z,1020.19
2017-01-20T07:55:08.672Z,1020.21
2017-01-20T07:55:49.146Z,1020.18
2017-01-20T07:56:29.656Z,1020.22
2017-01-20T07:57:10.138Z,1020.2
2017-01-20T07:57:50.606Z,1020.24
2017-01-20T07:58:31.076Z,1020.19
2017-01-20T08:02:16.951Z,1020.29
2017-01-20T08:02:57.448Z,1020.25
2017-01-20T08:03:37.926Z,1020.23
2017-01-20T08:04:18.444Z,1020.26
2017-01-20T08:04:58.914Z,1020.27
2017-01-20T08:05:39.416Z,1020.29
2017-01-20T08:06:19.925Z,1020.29
2017-01-20T08:07:00.392Z,1020.25
2017-01-20T08:07:40.887Z,1020.29
2017-01-20T08:08:21.342Z,1020.27
2017-01-20T08:09:01.838Z,1020.34
2017-01-20T08:09:42.394Z,1020.29
2017-01-20T08:10:22.935Z,1020.32
2017-01-20T08:11:04.554Z,1020.32
2017-01-20T08:11:45.076Z,1020.37
2017-01-20T08:12:25.549Z,1020.31
2017-01-20T08:13:06.032Z,1020.35
2017-01-20T08:13:46.487Z,1020.32
2017-01-20T08:14:27.037Z,1020.35
2017-01-20T08:15:07.464Z,1020.33
2017-01-20T08:15:47.973Z,1020.36
2017-01-20T08:16:28.455Z,1020.38
2017-01-20T08:17:09.057Z,1020.35
2017-01-20T08:17:49.529Z,1020.35
2017-01-20T08:18:29.977Z,1020.33
2017-01-20T08:19:10.495Z,1020.4
2017-01-20T08:19:50.973Z,1020.35
2017-01-20T08:20:31.475Z,1020.39
2017-01-20T08:21:14.572Z,1020.36
2017-01-20T08:21:54.978Z,1020.36
2017-01-20T08:22:35.483Z,1020.38
2017-01-20T08:23:16.107Z,1020.41
2017-01-20T08:23:56.571Z,1020.41
2017-01-20T08:24:37.031Z,1020.45
2017-01-20T08:25:17.502Z,1020.39
2017-01-20T08:25:58.116Z,1020.41
2017-01-20T08:26:38.532Z,1020.39
2017-01-20T08:27:19.044Z,1020.41
2017-01-20T08:27:59.671Z,1020.44
2017-01-20T08:28:40.110Z,1020.4
2017-01-20T08:29:20.600Z,1020.39
2017-01-20T08:30:01.066Z,1020.43
2017-01-20T08:30:41.557Z,1020.41
2017-01-20T08:31:22.058Z,1020.38
2017-01-20T08:32:02.581Z,1020.38
2017-01-20T08:32:43.208Z,1020.41
2017-01-20T08:33:23.660Z,1020.39
2017-01-20T08:34:04.206Z,1020.42
2017-01-20T08:34:44.749Z,1020.44
2017-01-20T08:35:25.222Z,1020.42
2017-01-20T08:36:05.665Z,1020.47
2017-01-20T08:36:46.138Z,1020.42
2017-01-20T08:37:26.751Z,1020.43
2017-01-20T08:38:07.308Z,1020.38
2017-01-20T08:38:47.849Z,1020.47
2017-01-20T08:39:28.362Z,1020.43
2017-01-20T08:40:08.938Z,1020.4
2017-01-20T08:40:49.395Z,1020.43
2017-01-20T08:41:29.921Z,1020.44
2017-01-20T08:42:10.354Z,1020.42
2017-01-20T08:42:50.896Z,1020.48
2017-01-20T08:43:31.462Z,1020.44
2017-01-20T08:44:11.900Z,1020.36